createdAt,value
2023-01-06T00:01:26.485Z,-0.54
2023-01-06T00:04:14.761Z,-0.55
2023-01-06T00:07:03.099Z,-0.54
2023-01-06T00:09:51.498Z,-0.54
2023-01-06T00:12:40.766Z,-0.55
2023-01-06T00:15:30.620Z,-0.55
2023-01-06T00:18:20.083Z,-0.54
2023-01-06T00:21:09.462Z,-0.54
2023-01-06T00:23:58.068Z,-0.56
2023-01-06T00:26:46.726Z,-0.57
2023-01-06T00:29:35.203Z,-0.62
2023-01-06T00:32:23.807Z,-0.64
2023-01-06T00:35:12.055Z,-0.66
2023-01-06T00:38:00.519Z,-0.65
2023-01-06T00:40:48.855Z,-0.60
2023-01-06T00:43:37.506Z,-0.57
2023-01-06T00:46:29.349Z,-0.56
2023-01-06T00:49:18.117Z,-0.56
2023-01-06T00:52:06.732Z,-0.59
2023-01-06T00:54:55.104Z,-0.65
2023-01-06T00:57:43.650Z,-0.70
2023-01-06T01:00:33.758Z,-0.72
2023-01-06T01:03:24.690Z,-0.74
2023-01-06T01:06:14.348Z,-0.75
2023-01-06T01:09:04.540Z,-0.80
2023-01-06T01:12:13.020Z,-0.83
2023-01-06T01:15:01.424Z,-0.86
2023-01-06T01:17:50.449Z,-0.90
2023-01-06T01:20:39.109Z,-0.93
2023-01-06T01:23:27.902Z,-0.93
2023-01-06T01:26:16.538Z,-0.94
2023-01-06T01:29:05.482Z,-0.94
2023-01-06T01:31:55.613Z,-0.93
2023-01-06T01:34:45.212Z,-0.92
2023-01-06T01:37:33.602Z,-0.90
2023-01-06T01:40:22.094Z,-0.90
2023-01-06T01:43:12.924Z,-0.92
2023-01-06T01:46:01.562Z,-0.91
2023-01-06T01:48:50.969Z,-0.92
2023-01-06T01:51:52.767Z,-0.92
2023-01-06T01:54:42.140Z,-0.96
2023-01-06T01:57:43.143Z,-1.02
2023-01-06T02:00:31.513Z,-1.07
2023-01-06T02:03:23.120Z,-1.10
2023-01-06T02:06:18.062Z,-1.14
2023-01-06T02:09:12.866Z,-1.12
2023-01-06T02:12:01.726Z,-1.10
2023-01-06T02:14:52.922Z,-1.09
2023-01-06T02:18:06.015Z,-1.12
2023-01-06T02:21:12.209Z,-1.13
2023-01-06T02:24:32.237Z,-1.15
2023-01-06T02:27:56.408Z,-1.17
2023-01-06T02:30:56.708Z,-1.18
2023-01-06T02:33:51.455Z,-1.18
2023-01-06T02:36:57.166Z,-1.18
2023-01-06T02:40:05.955Z,-1.18
2023-01-06T02:43:26.669Z,-1.17
2023-01-06T02:46:44.177Z,-1.17
2023-01-06T02:49:46.745Z,-1.17
2023-01-06T02:52:49.975Z,-1.19
2023-01-06T02:55:48.556Z,-1.17
2023-01-06T02:58:58.815Z,-1.18
2023-01-06T03:01:52.932Z,-1.20
2023-01-06T03:04:47.093Z,-1.22
2023-01-06T03:07:39.010Z,-1.23
2023-01-06T03:10:29.100Z,-1.25
2023-01-06T03:13:49.580Z,-1.26
2023-01-06T03:16:38.821Z,-1.28
2023-01-06T03:19:27.582Z,-1.34
2023-01-06T03:22:17.749Z,-1.33
2023-01-06T03:25:09.516Z,-1.31
2023-01-06T03:28:00.334Z,-1.27
2023-01-06T03:31:16.925Z,-1.26
2023-01-06T03:34:56.282Z,-1.24
2023-01-06T03:38:41.845Z,-1.25
2023-01-06T03:41:58.867Z,-1.30
2023-01-06T03:45:14.477Z,-1.30
2023-01-06T03:48:33.125Z,-1.28
2023-01-06T03:51:49.728Z,-1.25
2023-01-06T03:54:45.783Z,-1.24
2023-01-06T03:57:39.625Z,-1.24
2023-01-06T04:00:37.077Z,-1.27
2023-01-06T04:03:26.429Z,-1.26
2023-01-06T04:06:14.988Z,-1.25
2023-01-06T04:09:04.115Z,-1.27
2023-01-06T04:12:11.585Z,-1.32
2023-01-06T04:15:00.259Z,-1.34
2023-01-06T04:17:49.513Z,-1.34
2023-01-06T04:20:38.568Z,-1.31
2023-01-06T04:23:33.895Z,-1.28
2023-01-06T04:26:24.919Z,-1.23
2023-01-06T04:29:15.692Z,-1.19
2023-01-06T04:32:04.866Z,-1.17
2023-01-06T04:34:53.635Z,-1.18
2023-01-06T04:37:41.968Z,-1.23
2023-01-06T04:40:30.531Z,-1.29
2023-01-06T04:43:20.195Z,-1.31
2023-01-06T04:46:08.965Z,-1.32
2023-01-06T04:48:57.369Z,-1.31
2023-01-06T04:51:48.418Z,-1.31
2023-01-06T04:54:37.282Z,-1.29
2023-01-06T04:57:25.425Z,-1.27
2023-01-06T05:00:14.073Z,-1.26
2023-01-06T05:03:01.951Z,-1.25
2023-01-06T05:05:50.367Z,-1.24
2023-01-06T05:08:41.672Z,-1.21
2023-01-06T05:11:30.037Z,-1.19
2023-01-06T05:14:21.261Z,-1.18
2023-01-06T05:17:09.926Z,-1.19
2023-01-06T05:19:58.455Z,-1.22
2023-01-06T05:22:46.702Z,-1.23
2023-01-06T05:25:35.572Z,-1.26
2023-01-06T05:28:23.846Z,-1.29
2023-01-06T05:31:13.332Z,-1.30
2023-01-06T05:34:01.639Z,-1.33
2023-01-06T05:36:49.593Z,-1.32
2023-01-06T05:39:37.505Z,-1.34
2023-01-06T05:42:26.084Z,-1.36
2023-01-06T05:45:14.000Z,-1.36
2023-01-06T05:48:03.000Z,-1.37
2023-01-06T05:50:51.409Z,-1.33
2023-01-06T05:53:43.396Z,-1.31
2023-01-06T05:56:31.790Z,-1.29
2023-01-06T05:59:20.442Z,-1.27
2023-01-06T06:02:08.930Z,-1.25
2023-01-06T06:04:58.034Z,-1.25
2023-01-06T06:07:53.440Z,-1.26
2023-01-06T06:10:41.727Z,-1.29
2023-01-06T06:13:30.206Z,-1.32
2023-01-06T06:16:21.291Z,-1.33
2023-01-06T06:19:13.230Z,-1.34
2023-01-06T06:22:01.988Z,-1.33
2023-01-06T06:24:51.550Z,-1.35
2023-01-06T06:27:40.002Z,-1.35
2023-01-06T06:30:28.267Z,-1.38
2023-01-06T06:33:16.844Z,-1.38
2023-01-06T06:36:12.149Z,-1.41
2023-01-06T06:39:01.408Z,-1.45
2023-01-06T06:41:49.540Z,-1.45
2023-01-06T06:44:38.181Z,-1.44
2023-01-06T06:47:26.325Z,-1.42
2023-01-06T06:50:14.551Z,-1.41
2023-01-06T06:53:04.308Z,-1.42
2023-01-06T06:55:52.697Z,-1.44
2023-01-06T06:58:41.998Z,-1.43
2023-01-06T07:01:32.207Z,-1.42
2023-01-06T07:04:22.504Z,-1.41
2023-01-06T07:07:11.744Z,-1.38
2023-01-06T07:10:00.382Z,-1.36
2023-01-06T07:12:48.720Z,-1.33
2023-01-06T07:15:37.431Z,-1.32
2023-01-06T07:18:25.559Z,-1.32
2023-01-06T07:21:16.991Z,-1.33
2023-01-06T07:24:06.316Z,-1.33
2023-01-06T07:26:54.899Z,-1.31
2023-01-06T07:29:43.583Z,-1.28
2023-01-06T07:32:32.188Z,-1.24
2023-01-06T07:35:20.751Z,-1.22
2023-01-06T07:38:10.255Z,-1.24
2023-01-06T07:41:02.541Z,-1.21
2023-01-06T07:43:50.917Z,-1.22
2023-01-06T07:46:39.452Z,-1.26
2023-01-06T07:49:28.105Z,-1.29
2023-01-06T07:52:16.244Z,-1.29
2023-01-06T07:55:07.582Z,-1.31
2023-01-06T07:57:56.956Z,-1.32
2023-01-06T08:00:46.012Z,-1.32
2023-01-06T08:03:34.630Z,-1.29
2023-01-06T08:06:23.106Z,-1.26
2023-01-06T08:09:11.548Z,-1.29
2023-01-06T08:12:00.229Z,-1.32
2023-01-06T08:14:48.659Z,-1.35
2023-01-06T08:17:39.321Z,-1.39
2023-01-06T08:20:28.248Z,-1.42
2023-01-06T08:23:16.464Z,-1.42
2023-01-06T08:26:09.090Z,-1.43
2023-01-06T08:28:57.473Z,-1.42
2023-01-06T08:31:45.916Z,-1.38
2023-01-06T08:34:34.069Z,-1.39
2023-01-06T08:37:22.506Z,-1.41
2023-01-06T08:40:11.090Z,-1.36
2023-01-06T08:42:59.245Z,-1.34
2023-01-06T08:45:48.186Z,-1.26
2023-01-06T08:48:38.827Z,-1.20
2023-01-06T08:51:28.663Z,-1.16
2023-01-06T08:54:17.219Z,-1.15
2023-01-06T08:57:05.655Z,-1.17
2023-01-06T08:59:53.713Z,-1.17
2023-01-06T09:02:42.811Z,-1.16
2023-01-06T09:05:31.514Z,-1.15
2023-01-06T09:08:20.278Z,-1.13
2023-01-06T09:11:10.609Z,-1.13
2023-01-06T09:13:59.429Z,-1.10
2023-01-06T09:16:48.900Z,-1.09
2023-01-06T09:19:37.269Z,-1.09
2023-01-06T09:22:28.470Z,-1.10
2023-01-06T09:25:18.518Z,-1.12
2023-01-06T09:28:06.918Z,-1.17
2023-01-06T09:30:55.368Z,-1.22
2023-01-06T09:33:44.525Z,-1.18
2023-01-06T09:36:34.715Z,-1.25
2023-01-06T09:39:24.096Z,-1.30
2023-01-06T09:42:53.293Z,-1.38
2023-01-06T09:45:52.824Z,-1.52
2023-01-06T09:49:12.170Z,-1.60
2023-01-06T09:52:07.623Z,-1.66
2023-01-06T09:55:13.111Z,-1.69
2023-01-06T09:58:12.799Z,-1.75
2023-01-06T10:01:08.415Z,-1.76
2023-01-06T10:03:57.710Z,-1.74
2023-01-06T10:07:08.311Z,-1.74
2023-01-06T10:11:10.727Z,-1.75
2023-01-06T10:14:24.265Z,-1.65
2023-01-06T10:17:54.208Z,-1.71
2023-01-06T10:21:10.260Z,-1.75
2023-01-06T10:24:19.632Z,-1.76
2023-01-06T10:27:32.365Z,-1.82
2023-01-06T10:30:45.661Z,-1.79
2023-01-06T10:33:41.185Z,-1.83
2023-01-06T10:36:40.822Z,-1.86
2023-01-06T10:39:30.569Z,-1.90
2023-01-06T10:42:52.502Z,-1.89
2023-01-06T10:45:47.627Z,-1.85
2023-01-06T10:48:36.432Z,-1.86
2023-01-06T10:51:35.025Z,-1.87
2023-01-06T10:54:34.260Z,-1.83
2023-01-06T10:57:33.397Z,-1.83
2023-01-06T11:00:25.059Z,-1.85
2023-01-06T11:03:31.940Z,-1.89
2023-01-06T11:06:31.943Z,-1.92
2023-01-06T11:09:36.376Z,-1.92
2023-01-06T11:12:29.872Z,-1.94
2023-01-06T11:15:25.311Z,-1.89
2023-01-06T11:18:28.353Z,-1.89
2023-01-06T11:21:16.765Z,-1.87
2023-01-06T11:24:27.576Z,-1.87
2023-01-06T11:27:17.750Z,-1.89
2023-01-06T11:30:29.647Z,-1.90
2023-01-06T11:33:48.706Z,-1.87
2023-01-06T11:36:46.661Z,-1.78
2023-01-06T11:39:38.220Z,-1.76
2023-01-06T11:42:27.571Z,-1.63
2023-01-06T11:45:37.234Z,-1.59
2023-01-06T11:48:50.144Z,-1.54
2023-01-06T11:51:41.303Z,-1.43
2023-01-06T11:54:39.512Z,-1.43
2023-01-06T11:57:53.348Z,-1.45
2023-01-06T12:01:19.945Z,-1.50
2023-01-06T12:04:50.741Z,-1.60
2023-01-06T12:07:51.401Z,-1.76
2023-01-06T12:10:43.545Z,-1.75
2023-01-06T12:13:44.359Z,-1.82
2023-01-06T12:16:41.755Z,-1.93
2023-01-06T12:19:54.797Z,-2.01
2023-01-06T12:22:55.179Z,-2.04
2023-01-06T12:25:49.802Z,-2.09
2023-01-06T12:28:43.109Z,-2.15
2023-01-06T12:31:47.636Z,-2.18
2023-01-06T12:34:42.541Z,-2.22
2023-01-06T12:37:45.927Z,-2.24
2023-01-06T12:40:39.595Z,-2.26
2023-01-06T12:43:33.489Z,-2.26
2023-01-06T12:46:34.620Z,-2.34
2023-01-06T12:49:22.911Z,-2.36
2023-01-06T12:52:50.801Z,-2.35
2023-01-06T12:56:19.273Z,-2.32
2023-01-06T12:59:40.809Z,-2.28
2023-01-06T13:02:39.763Z,-2.23
2023-01-06T13:05:42.681Z,-2.21
2023-01-06T13:09:19.776Z,-2.22
2023-01-06T13:12:56.360Z,-2.22
2023-01-06T13:15:46.773Z,-2.24
2023-01-06T13:18:58.685Z,-2.27
2023-01-06T13:21:52.007Z,-2.33
2023-01-06T13:25:30.033Z,-2.36
2023-01-06T13:28:33.473Z,-2.42
2023-01-06T13:32:02.936Z,-2.50
2023-01-06T13:35:00.616Z,-2.52
2023-01-06T13:38:00.988Z,-2.52
2023-01-06T13:40:51.430Z,-2.51
2023-01-06T13:43:41.110Z,-2.53
2023-01-06T13:46:32.808Z,-2.60
2023-01-06T13:49:22.264Z,-2.65
2023-01-06T13:52:27.527Z,-2.66
2023-01-06T13:55:36.667Z,-2.67
2023-01-06T13:58:24.918Z,-2.66
2023-01-06T14:01:19.159Z,-2.67
2023-01-06T14:04:44.329Z,-2.72
2023-01-06T14:07:54.226Z,-2.76
2023-01-06T14:10:46.012Z,-2.81
2023-01-06T14:13:43.422Z,-2.82
2023-01-06T14:16:47.059Z,-2.73
2023-01-06T14:19:39.914Z,-2.69
2023-01-06T14:22:30.004Z,-2.67
2023-01-06T14:25:28.203Z,-2.71
2023-01-06T14:28:24.333Z,-2.76
2023-01-06T14:31:41.759Z,-2.78
2023-01-06T14:34:30.729Z,-2.82
2023-01-06T14:37:24.625Z,-2.82
2023-01-06T14:40:34.192Z,-2.80
2023-01-06T14:43:53.440Z,-2.83
2023-01-06T14:46:56.494Z,-2.88
2023-01-06T14:50:09.967Z,-2.88
2023-01-06T14:53:18.958Z,-2.88
2023-01-06T14:56:12.850Z,-2.83
2023-01-06T14:59:15.439Z,-2.82
2023-01-06T15:02:17.492Z,-2.82
2023-01-06T15:05:07.567Z,-2.81
2023-01-06T15:08:04.969Z,-2.81
2023-01-06T15:10:53.103Z,-2.77
2023-01-06T15:13:43.563Z,-2.75
2023-01-06T15:16:41.133Z,-2.75
2023-01-06T15:19:31.323Z,-2.73
2023-01-06T15:22:25.350Z,-2.71
2023-01-06T15:25:26.432Z,-2.72
2023-01-06T15:28:33.884Z,-2.72
2023-01-06T15:31:22.320Z,-2.71
2023-01-06T15:34:31.753Z,-2.69
2023-01-06T15:37:24.729Z,-2.67
2023-01-06T15:40:22.781Z,-2.64
2023-01-06T15:43:15.057Z,-2.62
2023-01-06T15:46:10.251Z,-2.62
2023-01-06T15:48:58.302Z,-2.61
2023-01-06T15:51:56.507Z,-2.58
2023-01-06T15:54:46.752Z,-2.53
2023-01-06T15:57:39.974Z,-2.52
2023-01-06T16:00:33.704Z,-2.53
2023-01-06T16:03:25.474Z,-2.53
2023-01-06T16:06:24.237Z,-2.52
2023-01-06T16:09:27.757Z,-2.55
2023-01-06T16:12:21.803Z,-2.50
2023-01-06T16:15:44.695Z,-2.47
2023-01-06T16:18:36.729Z,-2.43
2023-01-06T16:21:30.343Z,-2.39
2023-01-06T16:24:29.228Z,-2.37
2023-01-06T16:27:26.338Z,-2.35
2023-01-06T16:30:14.874Z,-2.33
2023-01-06T16:33:04.408Z,-2.31
2023-01-06T16:35:53.139Z,-2.31
2023-01-06T16:38:41.660Z,-2.30
2023-01-06T16:41:31.591Z,-2.27
2023-01-06T16:44:19.629Z,-2.23
2023-01-06T16:47:16.194Z,-2.22
2023-01-06T16:50:35.852Z,-2.20
2023-01-06T16:53:26.023Z,-2.19
2023-01-06T16:56:23.152Z,-2.17
2023-01-06T16:59:17.325Z,-2.16
2023-01-06T17:02:19.264Z,-2.13
2023-01-06T17:05:29.532Z,-2.17
2023-01-06T17:08:28.444Z,-2.13
2023-01-06T17:11:20.402Z,-2.10
2023-01-06T17:14:18.643Z,-2.09
2023-01-06T17:17:22.277Z,-2.07
2023-01-06T17:20:13.049Z,-2.04
2023-01-06T17:23:01.641Z,-2.03
2023-01-06T17:25:49.917Z,-2.01
2023-01-06T17:28:39.213Z,-1.99
2023-01-06T17:31:32.464Z,-1.97
2023-01-06T17:34:32.257Z,-1.95
2023-01-06T17:37:24.842Z,-1.92
2023-01-06T17:40:18.381Z,-1.91
2023-01-06T17:43:33.825Z,-1.88
2023-01-06T17:46:36.697Z,-1.86
2023-01-06T17:49:31.527Z,-1.84
2023-01-06T17:52:24.484Z,-1.80
2023-01-06T17:55:45.554Z,-1.77
2023-01-06T17:58:38.990Z,-1.73
2023-01-06T18:01:30.430Z,-1.72
2023-01-06T18:04:19.285Z,-1.72
2023-01-06T18:07:15.706Z,-1.71
2023-01-06T18:10:16.696Z,-1.69
2023-01-06T18:13:43.680Z,-1.71
2023-01-06T18:16:35.519Z,-1.68
2023-01-06T18:19:37.565Z,-1.64
2023-01-06T18:22:26.432Z,-1.63
2023-01-06T18:25:24.162Z,-1.61
2023-01-06T18:28:18.942Z,-1.59
2023-01-06T18:31:17.216Z,-1.57
2023-01-06T18:34:32.164Z,-1.55
2023-01-06T18:37:28.199Z,-1.52
2023-01-06T18:40:26.161Z,-1.49
2023-01-06T18:43:30.898Z,-1.48
2023-01-06T18:46:20.902Z,-1.48
2023-01-06T18:49:16.223Z,-1.47
2023-01-06T18:52:26.925Z,-1.43
2023-01-06T18:55:16.349Z,-1.41
2023-01-06T18:58:39.192Z,-1.39
2023-01-06T19:01:45.419Z,-1.38
2023-01-06T19:04:37.864Z,-1.36
2023-01-06T19:07:30.565Z,-1.32
2023-01-06T19:10:29.093Z,-1.33
2023-01-06T19:13:26.985Z,-1.29
2023-01-06T19:16:38.274Z,-1.26
2023-01-06T19:19:38.350Z,-1.23
2023-01-06T19:22:34.318Z,-1.20
2023-01-06T19:25:40.771Z,-1.18
2023-01-06T19:28:34.936Z,-1.15
2023-01-06T19:31:23.617Z,-1.13
2023-01-06T19:34:16.987Z,-1.11
2023-01-06T19:37:17.679Z,-1.09
2023-01-06T19:40:26.799Z,-1.06
2023-01-06T19:43:38.669Z,-1.03
2023-01-06T19:46:30.118Z,-0.99
2023-01-06T19:49:36.389Z,-0.96
2023-01-06T19:52:37.548Z,-0.92
2023-01-06T19:55:33.742Z,-0.90
2023-01-06T19:58:35.743Z,-0.89
2023-01-06T20:01:25.397Z,-0.86
2023-01-06T20:04:24.108Z,-0.85
2023-01-06T20:07:12.764Z,-0.83
2023-01-06T20:10:01.785Z,-0.80
2023-01-06T20:12:51.915Z,-0.77
2023-01-06T20:15:40.688Z,-0.72
2023-01-06T20:18:28.912Z,-0.68
2023-01-06T20:21:17.276Z,-0.63
2023-01-06T20:24:06.976Z,-0.60
2023-01-06T20:26:55.805Z,-0.55
2023-01-06T20:29:44.207Z,-0.52
2023-01-06T20:32:32.638Z,-0.48
2023-01-06T20:35:20.983Z,-0.45
2023-01-06T20:38:12.612Z,-0.42
2023-01-06T20:41:00.936Z,-0.38
2023-01-06T20:43:49.151Z,-0.36
2023-01-06T20:46:40.551Z,-0.34
2023-01-06T20:49:28.557Z,-0.31
2023-01-06T20:52:16.827Z,-0.27
2023-01-06T20:55:05.843Z,-0.24
2023-01-06T20:57:54.212Z,-0.20
2023-01-06T21:00:43.290Z,-0.17
2023-01-06T21:03:31.848Z,-0.13
2023-01-06T21:06:20.259Z,-0.09
2023-01-06T21:09:08.606Z,-0.05
2023-01-06T21:11:56.964Z,-0.04
2023-01-06T21:14:45.612Z,-0.04
2023-01-06T21:17:34.015Z,-0.02
2023-01-06T21:20:22.306Z,0.02
2023-01-06T21:23:10.974Z,0.05
2023-01-06T21:25:59.516Z,0.10
2023-01-06T21:28:47.762Z,0.14
2023-01-06T21:31:35.801Z,0.18
2023-01-06T21:34:25.223Z,0.23
2023-01-06T21:37:13.314Z,0.26
2023-01-06T21:40:04.526Z,0.31
2023-01-06T21:43:14.484Z,0.37
2023-01-06T21:46:05.676Z,0.44
2023-01-06T21:48:54.767Z,0.49
2023-01-06T21:51:43.426Z,0.55
2023-01-06T21:54:31.461Z,0.61
2023-01-06T21:57:20.931Z,0.67
2023-01-06T22:00:10.523Z,0.74
2023-01-06T22:03:01.258Z,0.80
2023-01-06T22:05:50.028Z,0.87
2023-01-06T22:08:39.207Z,0.94
2023-01-06T22:11:29.088Z,1.02
2023-01-06T22:14:18.386Z,1.12
2023-01-06T22:17:07.533Z,1.22
2023-01-06T22:19:56.169Z,1.30
2023-01-06T22:22:45.080Z,1.38
2023-01-06T22:25:33.527Z,1.48
2023-01-06T22:28:23.687Z,1.56
2023-01-06T22:31:12.536Z,1.65
2023-01-06T22:34:00.528Z,1.75
2023-01-06T22:36:49.098Z,1.81
2023-01-06T22:39:38.325Z,1.86
2023-01-06T22:42:26.703Z,1.91
2023-01-06T22:45:15.146Z,1.95
2023-01-06T22:48:03.231Z,2.02
2023-01-06T22:51:03.032Z,2.10
2023-01-06T22:53:52.372Z,2.14
2023-01-06T22:56:42.183Z,2.19
2023-01-06T22:59:30.037Z,2.24
2023-01-06T23:02:18.159Z,2.28
2023-01-06T23:05:07.206Z,2.32
2023-01-06T23:07:55.662Z,2.37
2023-01-06T23:10:45.079Z,2.43
2023-01-06T23:13:34.330Z,2.48
2023-01-06T23:16:23.411Z,2.51
2023-01-06T23:19:15.666Z,2.54
2023-01-06T23:22:03.767Z,2.57
2023-01-06T23:24:54.790Z,2.60
2023-01-06T23:27:45.765Z,2.63
2023-01-06T23:30:34.240Z,2.66
2023-01-06T23:33:22.551Z,2.68
2023-01-06T23:36:13.682Z,2.70
2023-01-06T23:39:05.298Z,2.71
2023-01-06T23:41:54.911Z,2.72
2023-01-06T23:44:47.731Z,2.72
2023-01-06T23:47:42.716Z,2.74
2023-01-06T23:50:31.014Z,2.75
2023-01-06T23:53:19.334Z,2.76
2023-01-06T23:56:15.497Z,2.78
2023-01-06T23:59:08.418Z,2.81
